createdAt,value
2023-01-17T00:02:05.718Z,2.90
2023-01-17T00:04:51.405Z,2.90
2023-01-17T00:07:38.680Z,2.90
2023-01-17T00:10:09.390Z,2.80
2023-01-17T00:12:39.253Z,2.80
2023-01-17T00:15:08.452Z,2.80
2023-01-17T00:17:36.186Z,2.80
2023-01-17T00:20:21.604Z,2.80
2023-01-17T00:23:06.913Z,2.80
2023-01-17T00:25:56.223Z,2.80
2023-01-17T00:28:25.556Z,2.70
2023-01-17T00:30:52.670Z,2.70
2023-01-17T00:33:19.856Z,2.70
2023-01-17T00:35:46.749Z,2.60
2023-01-17T00:38:15.215Z,2.60
2023-01-17T00:40:43.214Z,2.50
2023-01-17T00:43:29.735Z,2.50
2023-01-17T00:46:16.841Z,2.40
2023-01-17T00:49:02.481Z,2.40
2023-01-17T00:51:49.639Z,2.40
2023-01-17T00:54:35.037Z,2.40
2023-01-17T00:57:20.750Z,2.40
2023-01-17T01:00:07.293Z,2.30
2023-01-17T01:02:54.140Z,2.30
2023-01-17T01:05:39.788Z,2.30
2023-01-17T01:08:34.944Z,2.30
2023-01-17T01:11:23.649Z,2.30
2023-01-17T01:14:08.740Z,2.30
2023-01-17T01:16:53.937Z,2.30
2023-01-17T01:19:40.397Z,2.30
2023-01-17T01:22:25.688Z,2.30
2023-01-17T01:25:10.930Z,2.30
2023-01-17T01:27:56.075Z,2.30
2023-01-17T01:30:41.265Z,2.40
2023-01-17T01:33:20.942Z,2.40
2023-01-17T01:35:52.433Z,2.30
2023-01-17T01:38:22.162Z,2.30
2023-01-17T01:40:51.809Z,2.30
2023-01-17T01:43:21.300Z,2.30
2023-01-17T01:45:53.295Z,2.30
2023-01-17T01:48:34.623Z,2.30
2023-01-17T01:51:06.762Z,2.30
2023-01-17T01:53:38.345Z,2.20
2023-01-17T01:56:10.557Z,2.20
2023-01-17T01:58:39.209Z,2.20
2023-01-17T02:01:09.199Z,2.20
2023-01-17T02:03:37.941Z,2.20
2023-01-17T02:06:16.484Z,2.20
2023-01-17T02:08:44.576Z,2.20
2023-01-17T02:11:13.022Z,2.20
2023-01-17T02:13:41.727Z,2.20
2023-01-17T02:16:19.792Z,2.20
2023-01-17T02:18:54.211Z,2.20
2023-01-17T02:21:29.395Z,2.20
2023-01-17T02:24:39.123Z,2.20
2023-01-17T02:27:13.914Z,2.20
2023-01-17T02:30:14.341Z,2.20
2023-01-17T02:32:56.276Z,2.20
2023-01-17T02:35:34.790Z,2.20
2023-01-17T02:38:12.185Z,2.20
2023-01-17T02:40:43.838Z,2.20
2023-01-17T02:43:14.960Z,2.20
2023-01-17T02:45:42.756Z,2.20
2023-01-17T02:48:15.057Z,2.20
2023-01-17T02:51:21.707Z,2.20
2023-01-17T02:54:09.455Z,2.10
2023-01-17T02:56:48.854Z,2.10
2023-01-17T02:59:29.758Z,2.10
2023-01-17T03:02:10.303Z,2.10
2023-01-17T03:04:45.335Z,2.10
2023-01-17T03:07:17.499Z,2.10
2023-01-17T03:09:47.508Z,2.10
2023-01-17T03:12:15.350Z,2.10
2023-01-17T03:14:43.070Z,2.10
2023-01-17T03:17:10.846Z,2.10
2023-01-17T03:19:39.921Z,2.10
2023-01-17T03:22:07.655Z,2.00
2023-01-17T03:24:35.413Z,2.00
2023-01-17T03:27:03.145Z,2.00
2023-01-17T03:29:30.907Z,2.00
2023-01-17T03:31:58.738Z,2.00
2023-01-17T03:34:26.475Z,2.00
2023-01-17T03:36:55.610Z,2.00
2023-01-17T03:39:23.366Z,2.00
2023-01-17T03:41:51.094Z,2.00
2023-01-17T03:44:18.822Z,2.00
2023-01-17T03:46:46.547Z,2.00
2023-01-17T03:49:14.280Z,2.00
2023-01-17T03:51:41.986Z,1.90
2023-01-17T03:54:11.170Z,1.90
2023-01-17T03:56:38.913Z,1.90
2023-01-17T03:59:06.629Z,1.90
2023-01-17T04:01:34.534Z,1.90
2023-01-17T04:04:02.408Z,1.80
2023-01-17T04:06:30.150Z,1.90
2023-01-17T04:08:57.872Z,1.90
2023-01-17T04:11:26.942Z,1.90
2023-01-17T04:13:55.127Z,1.90
2023-01-17T04:16:26.436Z,1.90
2023-01-17T04:18:54.166Z,1.90
2023-01-17T04:21:22.046Z,1.90
2023-01-17T04:23:50.063Z,1.90
2023-01-17T04:26:17.805Z,1.90
2023-01-17T04:28:46.869Z,1.90
2023-01-17T04:31:16.615Z,1.80
2023-01-17T04:33:44.459Z,1.80
2023-01-17T04:36:12.240Z,1.90
2023-01-17T04:38:39.942Z,1.90
2023-01-17T04:41:07.678Z,1.90
2023-01-17T04:43:35.903Z,1.90
2023-01-17T04:46:09.859Z,1.90
2023-01-17T04:48:38.173Z,1.90
2023-01-17T04:51:06.816Z,1.90
2023-01-17T04:53:34.563Z,1.90
2023-01-17T04:56:02.724Z,1.90
2023-01-17T04:58:31.121Z,1.90
2023-01-17T05:01:04.476Z,1.90
2023-01-17T05:03:32.657Z,1.90
2023-01-17T05:06:00.720Z,1.90
2023-01-17T05:08:28.841Z,1.90
2023-01-17T05:10:56.622Z,1.90
2023-01-17T05:13:24.387Z,1.90
2023-01-17T05:15:52.243Z,1.80
2023-01-17T05:18:21.386Z,1.80
2023-01-17T05:20:49.126Z,1.80
2023-01-17T05:23:16.951Z,1.80
2023-01-17T05:25:45.057Z,1.80
2023-01-17T05:28:13.861Z,1.80
2023-01-17T05:30:42.148Z,1.80
2023-01-17T05:33:10.449Z,1.80
2023-01-17T05:35:39.589Z,1.80
2023-01-17T05:38:07.325Z,1.70
2023-01-17T05:40:35.097Z,1.70
2023-01-17T05:43:04.117Z,1.70
2023-01-17T05:45:33.551Z,1.60
2023-01-17T05:48:01.637Z,1.60
2023-01-17T05:50:31.733Z,1.60
2023-01-17T05:53:02.834Z,1.60
2023-01-17T05:55:31.634Z,1.60
2023-01-17T05:57:59.429Z,1.60
2023-01-17T06:00:27.847Z,1.60
2023-01-17T06:02:56.616Z,1.60
2023-01-17T06:05:24.825Z,1.60
2023-01-17T06:07:52.855Z,1.60
2023-01-17T06:10:23.094Z,1.60
2023-01-17T06:12:51.825Z,1.70
2023-01-17T06:15:19.701Z,1.70
2023-01-17T06:17:47.406Z,1.70
2023-01-17T06:20:15.215Z,1.70
2023-01-17T06:22:42.932Z,1.70
2023-01-17T06:25:10.853Z,1.70
2023-01-17T06:27:39.954Z,1.70
2023-01-17T06:30:09.108Z,1.70
2023-01-17T06:32:36.832Z,1.70
2023-01-17T06:38:00.437Z,1.70
2023-01-17T06:40:29.208Z,1.70
2023-01-17T06:43:02.395Z,1.70
2023-01-17T06:45:30.711Z,1.80
2023-01-17T06:47:59.186Z,1.70
2023-01-17T06:50:27.601Z,1.70
2023-01-17T06:52:56.898Z,1.70
2023-01-17T06:55:26.509Z,1.70
2023-01-17T06:57:55.096Z,1.70
2023-01-17T07:00:25.043Z,1.70
2023-01-17T07:02:52.993Z,1.70
2023-01-17T07:05:21.290Z,1.70
2023-01-17T07:07:49.047Z,1.80
2023-01-17T07:10:17.385Z,1.80
2023-01-17T07:12:45.135Z,1.80
2023-01-17T07:15:13.522Z,1.80
2023-01-17T07:17:42.636Z,1.70
2023-01-17T07:20:11.438Z,1.80
2023-01-17T07:22:39.146Z,1.80
2023-01-17T07:25:07.809Z,1.80
2023-01-17T07:27:35.531Z,1.80
2023-01-17T07:30:03.243Z,1.80
2023-01-17T07:32:31.116Z,1.70
2023-01-17T07:35:00.222Z,1.70
2023-01-17T07:37:27.957Z,1.70
2023-01-17T07:39:55.721Z,1.70
2023-01-17T07:42:24.417Z,1.70
2023-01-17T07:44:52.256Z,1.80
2023-01-17T07:47:20.048Z,1.80
2023-01-17T07:49:47.766Z,1.80
2023-01-17T07:52:18.230Z,1.80
2023-01-17T07:54:46.116Z,1.80
2023-01-17T07:57:13.893Z,1.80
2023-01-17T07:59:41.649Z,1.80
2023-01-17T08:02:17.503Z,1.80
2023-01-17T08:04:45.263Z,1.80
2023-01-17T08:07:13.915Z,1.80
2023-01-17T08:09:49.393Z,1.80
2023-01-17T08:12:17.467Z,1.80
2023-01-17T08:14:45.215Z,1.80
2023-01-17T08:17:16.293Z,1.80
2023-01-17T08:19:44.653Z,1.80
2023-01-17T08:22:13.016Z,1.90
2023-01-17T08:24:41.778Z,1.90
2023-01-17T08:27:10.958Z,1.90
2023-01-17T08:29:41.316Z,1.90
2023-01-17T08:32:09.123Z,2.00
2023-01-17T08:34:36.849Z,2.00
2023-01-17T08:37:04.632Z,2.00
2023-01-17T08:39:32.343Z,2.00
2023-01-17T08:42:00.115Z,2.10
2023-01-17T08:44:29.196Z,2.00
2023-01-17T08:46:56.976Z,2.10
2023-01-17T08:49:24.871Z,2.10
2023-01-17T08:51:52.711Z,2.10
2023-01-17T08:54:22.209Z,2.10
2023-01-17T08:56:49.954Z,2.10
2023-01-17T08:59:17.672Z,2.10
2023-01-17T09:01:46.916Z,2.10
2023-01-17T09:04:15.796Z,2.10
2023-01-17T09:06:48.095Z,2.10
2023-01-17T09:09:17.255Z,2.10
2023-01-17T09:11:45.069Z,2.10
2023-01-17T09:14:13.467Z,2.10
2023-01-17T09:16:41.330Z,2.20
2023-01-17T09:19:10.634Z,2.10
2023-01-17T09:21:38.339Z,2.10
2023-01-17T09:24:06.423Z,2.10
2023-01-17T09:26:34.267Z,2.10
2023-01-17T09:29:01.983Z,2.10
2023-01-17T09:31:29.779Z,2.10
2023-01-17T09:33:58.913Z,2.20
2023-01-17T09:36:31.722Z,2.20
2023-01-17T09:39:00.167Z,2.20
2023-01-17T09:41:31.215Z,2.20
2023-01-17T09:44:07.101Z,2.20
2023-01-17T09:46:39.924Z,2.20
2023-01-17T09:49:10.435Z,2.30
2023-01-17T09:51:40.108Z,2.30
2023-01-17T09:54:19.924Z,2.30
2023-01-17T09:56:54.485Z,2.30
2023-01-17T09:59:35.544Z,2.40
2023-01-17T10:02:16.216Z,2.40
2023-01-17T10:05:01.894Z,2.40
2023-01-17T10:07:42.832Z,2.50
2023-01-17T10:10:33.306Z,2.50
2023-01-17T10:13:06.711Z,2.60
2023-01-17T10:15:54.004Z,2.60
2023-01-17T10:18:45.512Z,2.70
2023-01-17T10:21:20.156Z,2.80
2023-01-17T10:24:13.634Z,2.80
2023-01-17T10:26:41.931Z,2.90
2023-01-17T10:29:15.997Z,3.00
2023-01-17T10:31:51.187Z,3.00
2023-01-17T10:34:22.781Z,3.00
2023-01-17T10:36:55.987Z,2.90
2023-01-17T10:39:27.578Z,3.00
2023-01-17T10:41:58.343Z,2.90
2023-01-17T10:44:31.107Z,3.00
2023-01-17T10:47:06.362Z,2.90
2023-01-17T10:49:34.276Z,2.90
2023-01-17T10:52:16.676Z,3.00
2023-01-17T10:55:09.102Z,3.00
2023-01-17T10:57:41.955Z,3.00
2023-01-17T11:00:33.136Z,3.00
2023-01-17T11:03:02.713Z,3.10
2023-01-17T11:05:32.265Z,3.10
2023-01-17T11:08:01.710Z,3.10
2023-01-17T11:10:41.290Z,3.10
2023-01-17T11:13:23.496Z,3.10
2023-01-17T11:15:53.916Z,3.20
2023-01-17T11:18:22.365Z,3.20
2023-01-17T11:20:50.630Z,3.30
2023-01-17T11:23:21.147Z,3.30
2023-01-17T11:25:52.768Z,3.30
2023-01-17T11:28:25.988Z,3.20
2023-01-17T11:30:56.364Z,3.30
2023-01-17T11:33:35.624Z,3.30
2023-01-17T11:36:03.609Z,3.20
2023-01-17T11:38:31.363Z,3.20
2023-01-17T11:41:20.172Z,3.30
2023-01-17T11:43:54.936Z,3.40
2023-01-17T11:46:23.871Z,3.50
2023-01-17T11:48:55.986Z,3.60
2023-01-17T11:51:28.060Z,3.70
2023-01-17T11:54:04.501Z,3.80
2023-01-17T11:56:36.343Z,3.80
2023-01-17T11:59:21.851Z,4.00
2023-01-17T12:02:01.013Z,4.00
2023-01-17T12:04:36.666Z,4.00
2023-01-17T12:07:25.502Z,4.00
2023-01-17T12:10:03.271Z,3.90
2023-01-17T12:13:06.323Z,3.90
2023-01-17T12:15:48.273Z,3.90
2023-01-17T12:18:30.084Z,4.00
2023-01-17T12:21:12.300Z,4.00
2023-01-17T12:24:06.896Z,4.00
2023-01-17T12:26:40.488Z,4.00
2023-01-17T12:29:47.929Z,4.10
2023-01-17T12:32:53.102Z,4.00
2023-01-17T12:35:26.971Z,4.00
2023-01-17T12:38:05.288Z,4.00
2023-01-17T12:40:38.039Z,4.00
2023-01-17T12:43:14.270Z,4.00
2023-01-17T12:45:45.040Z,3.90
2023-01-17T12:48:18.272Z,3.80
2023-01-17T12:50:51.092Z,3.80
2023-01-17T12:53:26.127Z,3.70
2023-01-17T12:55:57.895Z,3.60
2023-01-17T12:58:29.126Z,3.60
2023-01-17T13:01:02.589Z,3.60
2023-01-17T13:03:41.628Z,3.60
2023-01-17T13:06:16.682Z,3.50
2023-01-17T13:08:49.547Z,3.50
2023-01-17T13:11:27.638Z,3.50
2023-01-17T13:13:57.370Z,3.50
2023-01-17T13:16:33.220Z,3.50
2023-01-17T13:19:09.635Z,3.50
2023-01-17T13:21:37.454Z,3.40
2023-01-17T13:24:22.869Z,3.30
2023-01-17T13:27:16.209Z,3.20
2023-01-17T13:29:55.680Z,3.20
2023-01-17T13:32:42.356Z,3.30
2023-01-17T13:35:23.362Z,3.30
2023-01-17T13:38:08.343Z,3.40
2023-01-17T13:40:40.993Z,3.40
2023-01-17T13:43:15.219Z,3.40
2023-01-17T13:45:52.019Z,3.30
2023-01-17T13:48:34.553Z,3.40
2023-01-17T13:51:04.725Z,3.30
2023-01-17T13:53:59.387Z,3.30
2023-01-17T13:56:33.215Z,3.20
2023-01-17T13:59:06.451Z,3.30
2023-01-17T14:01:54.048Z,3.20
2023-01-17T14:04:23.461Z,3.20
2023-01-17T14:06:56.650Z,3.30
2023-01-17T14:09:28.516Z,3.30
2023-01-17T14:12:04.214Z,3.30
2023-01-17T14:14:53.082Z,3.20
2023-01-17T14:17:59.463Z,3.20
2023-01-17T14:20:52.088Z,3.20
2023-01-17T14:23:38.255Z,3.20
2023-01-17T14:26:49.642Z,3.20
2023-01-17T14:29:50.944Z,3.10
2023-01-17T14:32:20.890Z,3.10
2023-01-17T14:34:50.729Z,3.10
2023-01-17T14:37:25.444Z,3.10
2023-01-17T14:39:54.515Z,3.00
2023-01-17T14:42:24.748Z,3.00
2023-01-17T14:44:57.584Z,2.90
2023-01-17T14:47:26.378Z,2.90
2023-01-17T14:50:13.298Z,2.90
2023-01-17T14:52:41.080Z,2.80
2023-01-17T14:55:17.121Z,2.80
2023-01-17T14:57:55.789Z,2.80
2023-01-17T15:00:28.974Z,2.70
2023-01-17T15:02:59.263Z,2.70
2023-01-17T15:05:28.927Z,2.70
2023-01-17T15:07:59.022Z,2.70
2023-01-17T15:10:30.771Z,2.70
2023-01-17T15:13:06.448Z,2.60
2023-01-17T15:15:38.189Z,2.60
2023-01-17T15:18:10.913Z,2.60
2023-01-17T15:20:39.088Z,2.60
2023-01-17T15:23:07.288Z,2.50
2023-01-17T15:25:36.831Z,2.50
2023-01-17T15:28:06.456Z,2.40
2023-01-17T15:30:34.221Z,2.40
2023-01-17T15:33:02.026Z,2.40
2023-01-17T15:35:29.783Z,2.40
2023-01-17T15:37:58.436Z,2.30
2023-01-17T15:40:27.910Z,2.30
2023-01-17T15:43:00.833Z,2.20
2023-01-17T15:45:30.760Z,2.20
2023-01-17T15:47:59.234Z,2.20
2023-01-17T15:50:30.923Z,2.10
2023-01-17T15:53:01.376Z,2.10
2023-01-17T15:55:32.421Z,2.00
2023-01-17T15:58:02.583Z,2.00
2023-01-17T16:00:37.605Z,1.90
2023-01-17T16:03:20.266Z,1.90
2023-01-17T16:05:49.094Z,1.80
2023-01-17T16:08:38.576Z,1.80
2023-01-17T16:11:08.060Z,1.70
2023-01-17T16:13:41.989Z,1.70
2023-01-17T16:16:19.826Z,1.60
2023-01-17T16:18:49.106Z,1.60
2023-01-17T16:21:20.809Z,1.50
2023-01-17T16:23:48.808Z,1.50
2023-01-17T16:26:16.892Z,1.50
2023-01-17T16:28:46.536Z,1.40
2023-01-17T16:31:14.360Z,1.40
2023-01-17T16:33:43.103Z,1.30
2023-01-17T16:36:16.377Z,1.30
2023-01-17T16:38:45.309Z,1.30
2023-01-17T16:41:13.246Z,1.20
2023-01-17T16:43:41.167Z,1.20
2023-01-17T16:46:12.005Z,1.10
2023-01-17T16:48:39.777Z,1.10
2023-01-17T16:51:08.678Z,1.10
2023-01-17T16:53:37.091Z,1.10
2023-01-17T16:56:13.488Z,1.00
2023-01-17T16:58:42.030Z,1.00
2023-01-17T17:01:12.154Z,1.00
2023-01-17T17:03:39.931Z,1.00
2023-01-17T17:06:08.419Z,1.00
2023-01-17T17:08:37.073Z,0.90
2023-01-17T17:11:12.848Z,0.90
2023-01-17T17:13:41.051Z,0.90
2023-01-17T17:16:19.288Z,0.80
2023-01-17T17:18:48.551Z,0.80
2023-01-17T17:21:16.353Z,0.80
2023-01-17T17:23:44.244Z,0.70
2023-01-17T17:26:12.023Z,0.70
2023-01-17T17:28:39.767Z,0.70
2023-01-17T17:31:10.864Z,0.60
2023-01-17T17:33:40.149Z,0.60
2023-01-17T17:36:10.923Z,0.50
2023-01-17T17:38:50.843Z,0.50
2023-01-17T17:41:21.297Z,0.50
2023-01-17T17:43:49.172Z,0.50
2023-01-17T17:46:17.074Z,0.50
2023-01-17T17:48:46.203Z,0.40
2023-01-17T17:51:23.270Z,0.40
2023-01-17T17:53:53.035Z,0.40
2023-01-17T17:56:21.443Z,0.30
2023-01-17T17:58:49.735Z,0.30
2023-01-17T18:01:17.828Z,0.30
2023-01-17T18:03:46.968Z,0.30
2023-01-17T18:06:17.319Z,0.30
2023-01-17T18:08:45.381Z,0.30
2023-01-17T18:11:18.303Z,0.20
2023-01-17T18:13:50.221Z,0.20
2023-01-17T18:16:20.213Z,0.20
2023-01-17T18:18:51.382Z,0.10
2023-01-17T18:21:23.427Z,0.10
2023-01-17T18:23:54.444Z,0.00
2023-01-17T18:26:24.487Z,0.00
2023-01-17T18:28:53.026Z,0.00
2023-01-17T18:31:21.279Z,-0.10
2023-01-17T18:33:50.427Z,-0.10
2023-01-17T18:36:18.615Z,-0.10
2023-01-17T18:38:47.867Z,-0.10
2023-01-17T18:41:17.751Z,-0.20
2023-01-17T18:43:46.408Z,-0.20
2023-01-17T18:46:14.546Z,-0.20
2023-01-17T18:48:42.704Z,-0.20
2023-01-17T18:51:13.822Z,-0.20
2023-01-17T18:53:42.954Z,-0.30
2023-01-17T18:56:12.393Z,-0.30
2023-01-17T18:58:43.264Z,-0.30
2023-01-17T19:01:13.615Z,-0.30
2023-01-17T19:03:42.880Z,-0.40
2023-01-17T19:06:14.483Z,-0.40
2023-01-17T19:08:42.927Z,-0.40
2023-01-17T19:11:11.009Z,-0.40
2023-01-17T19:13:40.420Z,-0.40
2023-01-17T19:16:10.304Z,-0.50
2023-01-17T19:18:38.153Z,-0.50
2023-01-17T19:21:06.809Z,-0.50
2023-01-17T19:23:37.087Z,-0.50
2023-01-17T19:26:06.026Z,-0.60
2023-01-17T19:28:35.672Z,-0.60
2023-01-17T19:31:05.950Z,-0.60
2023-01-17T19:33:34.825Z,-0.60
2023-01-17T19:36:03.621Z,-0.60
2023-01-17T19:38:31.804Z,-0.70
2023-01-17T19:41:08.538Z,-0.70
2023-01-17T19:43:36.311Z,-0.70
2023-01-17T19:46:04.191Z,-0.70
2023-01-17T19:48:32.118Z,-0.80
2023-01-17T19:51:05.463Z,-0.80
2023-01-17T19:53:33.215Z,-0.80
2023-01-17T19:56:05.726Z,-0.80
2023-01-17T19:58:33.529Z,-0.80
2023-01-17T20:01:07.383Z,-0.90
2023-01-17T20:03:35.543Z,-0.90
2023-01-17T20:06:03.283Z,-0.90
2023-01-17T20:08:31.078Z,-0.90
2023-01-17T20:11:03.784Z,-0.90
2023-01-17T20:13:31.571Z,-1.00
2023-01-17T20:16:03.686Z,-1.00
2023-01-17T20:18:32.656Z,-1.00
2023-01-17T20:21:03.908Z,-1.00
2023-01-17T20:23:35.174Z,-1.10
2023-01-17T20:26:04.488Z,-1.10
2023-01-17T20:28:34.168Z,-1.10
2023-01-17T20:31:07.338Z,-1.10
2023-01-17T20:33:36.116Z,-1.10
2023-01-17T20:36:10.548Z,-1.10
2023-01-17T20:38:44.452Z,-1.10
2023-01-17T20:41:15.622Z,-1.20
2023-01-17T20:43:44.185Z,-1.20
2023-01-17T20:46:12.715Z,-1.20
2023-01-17T20:48:45.604Z,-1.20
2023-01-17T20:51:14.324Z,-1.20
2023-01-17T20:53:43.307Z,-1.20
2023-01-17T20:56:12.769Z,-1.30
2023-01-17T20:58:41.970Z,-1.30
2023-01-17T21:01:10.678Z,-1.30
2023-01-17T21:03:39.450Z,-1.30
2023-01-17T21:06:09.480Z,-1.30
2023-01-17T21:08:39.464Z,-1.40
2023-01-17T21:11:08.745Z,-1.40
2023-01-17T21:13:37.077Z,-1.40
2023-01-17T21:16:08.107Z,-1.40
2023-01-17T21:18:36.892Z,-1.40
2023-01-17T21:21:07.266Z,-1.40
2023-01-17T21:23:35.081Z,-1.50
2023-01-17T21:26:03.022Z,-1.50
2023-01-17T21:28:33.390Z,-1.50
2023-01-17T21:31:01.188Z,-1.50
2023-01-17T21:33:30.261Z,-1.60
2023-01-17T21:36:07.641Z,-1.60
2023-01-17T21:38:35.391Z,-1.60
2023-01-17T21:41:03.218Z,-1.60
2023-01-17T21:43:30.940Z,-1.60
2023-01-17T21:46:02.714Z,-1.70
2023-01-17T21:48:32.181Z,-1.60
2023-01-17T21:51:05.159Z,-1.70
2023-01-17T21:53:33.098Z,-1.70
2023-01-17T21:56:19.145Z,-1.70
2023-01-17T21:58:49.124Z,-1.80
2023-01-17T22:01:18.783Z,-1.80
2023-01-17T22:03:51.751Z,-1.80
2023-01-17T22:06:20.011Z,-1.80
2023-01-17T22:08:47.905Z,-1.80
2023-01-17T22:11:17.263Z,-1.80
2023-01-17T22:13:45.679Z,-1.80
2023-01-17T22:16:15.925Z,-1.80
2023-01-17T22:18:44.992Z,-1.80
2023-01-17T22:21:16.011Z,-1.90
2023-01-17T22:23:47.424Z,-1.90
2023-01-17T22:26:15.558Z,-1.80
2023-01-17T22:28:44.417Z,-1.90
2023-01-17T22:31:14.292Z,-1.90
2023-01-17T22:33:43.918Z,-1.90
2023-01-17T22:36:14.483Z,-2.00
2023-01-17T22:38:43.449Z,-2.00
2023-01-17T22:41:13.082Z,-2.00
2023-01-17T22:43:42.818Z,-1.90
2023-01-17T22:46:12.488Z,-1.90
2023-01-17T22:48:40.844Z,-1.90
2023-01-17T22:51:10.826Z,-1.90
2023-01-17T22:53:42.750Z,-1.90
2023-01-17T22:56:14.170Z,-1.90
2023-01-17T22:58:44.669Z,-1.90
2023-01-17T23:01:14.111Z,-1.90
2023-01-17T23:03:42.620Z,-1.90
2023-01-17T23:06:12.319Z,-1.90
2023-01-17T23:08:43.629Z,-1.90
2023-01-17T23:11:45.992Z,-1.90
2023-01-17T23:14:17.155Z,-2.00
2023-01-17T23:17:04.149Z,-2.00
2023-01-17T23:19:34.556Z,-2.00
2023-01-17T23:22:17.187Z,-2.10
2023-01-17T23:24:50.762Z,-2.00
2023-01-17T23:27:38.860Z,-2.10
2023-01-17T23:30:10.620Z,-2.10
2023-01-17T23:32:38.444Z,-2.10
2023-01-17T23:35:06.953Z,-2.10
2023-01-17T23:37:57.609Z,-2.20
2023-01-17T23:40:27.042Z,-2.10
2023-01-17T23:43:12.120Z,-2.20
2023-01-17T23:45:40.654Z,-2.20
2023-01-17T23:48:10.586Z,-2.20
2023-01-17T23:50:39.152Z,-2.20
2023-01-17T23:53:07.772Z,-2.20
2023-01-17T23:55:38.346Z,-2.20
2023-01-17T23:58:07.006Z,-2.30
